createdAt,value
2019-03-16T00:00:29.851Z,99.99
2019-03-16T00:01:29.838Z,99.99
2019-03-16T00:02:29.821Z,99.99
2019-03-16T00:03:29.800Z,99.99
2019-03-16T00:04:29.780Z,99.99
2019-03-16T00:05:29.772Z,99.99
2019-03-16T00:06:29.751Z,99.91
2019-03-16T00:07:33.283Z,99.99
2019-03-16T00:08:29.719Z,99.82
2019-03-16T00:09:29.705Z,99.99
2019-03-16T00:10:29.688Z,99.99
2019-03-16T00:11:29.667Z,99.99
2019-03-16T00:12:29.656Z,99.99
2019-03-16T00:13:29.645Z,99.82
2019-03-16T00:14:29.638Z,99.99
2019-03-16T00:15:29.605Z,99.63
2019-03-16T00:16:29.586Z,99.99
2019-03-16T00:17:29.574Z,99.99
2019-03-16T00:18:29.554Z,99.99
2019-03-16T00:19:29.547Z,99.99
2019-03-16T00:20:29.521Z,99.99
2019-03-16T00:21:29.512Z,99.99
2019-03-16T00:22:29.496Z,99.99
2019-03-16T00:23:29.476Z,99.99
2019-03-16T00:24:29.457Z,99.99
2019-03-16T00:25:29.449Z,99.99
2019-03-16T00:26:29.425Z,99.99
2019-03-16T00:27:29.407Z,99.99
2019-03-16T00:28:29.387Z,99.99
2019-03-16T00:29:29.376Z,99.99
2019-03-16T00:30:29.355Z,99.99
2019-03-16T00:31:29.340Z,99.99
2019-03-16T00:32:29.341Z,99.99
2019-03-16T00:33:29.310Z,99.99
2019-03-16T00:34:29.286Z,99.99
2019-03-16T00:35:29.268Z,99.99
2019-03-16T00:36:29.259Z,99.99
2019-03-16T00:37:29.245Z,99.99
2019-03-16T00:38:29.231Z,99.99
2019-03-16T00:39:29.208Z,99.99
2019-03-16T00:40:29.197Z,99.99
2019-03-16T00:41:29.180Z,99.99
2019-03-16T00:42:29.160Z,99.99
2019-03-16T00:43:29.148Z,99.99
2019-03-16T00:44:29.139Z,99.99
2019-03-16T00:45:29.110Z,99.99
2019-03-16T00:46:29.107Z,99.99
2019-03-16T00:47:29.077Z,99.99
2019-03-16T00:48:29.065Z,99.99
2019-03-16T00:49:29.046Z,99.99
2019-03-16T00:50:29.122Z,99.63
2019-03-16T00:51:29.013Z,99.82
2019-03-16T00:52:29.001Z,99.99
2019-03-16T00:53:28.989Z,99.99
2019-03-16T00:54:28.962Z,99.99
2019-03-16T00:55:28.962Z,99.99
2019-03-16T00:56:28.933Z,99.99
2019-03-16T00:57:28.916Z,99.99
2019-03-16T00:58:28.899Z,99.99
2019-03-16T00:59:28.885Z,99.99
2019-03-16T01:00:28.864Z,99.99
2019-03-16T01:01:28.852Z,99.99
2019-03-16T01:02:28.832Z,99.99
2019-03-16T01:03:28.828Z,99.99
2019-03-16T01:04:28.801Z,99.99
2019-03-16T01:05:28.778Z,99.99
2019-03-16T01:06:28.777Z,99.99
2019-03-16T01:07:28.753Z,99.99
2019-03-16T01:08:28.735Z,99.99
2019-03-16T01:09:28.730Z,99.99
2019-03-16T01:10:28.709Z,99.99
2019-03-16T01:11:28.679Z,99.99
2019-03-16T01:12:28.671Z,99.99
2019-03-16T01:13:28.653Z,99.99
2019-03-16T01:14:28.631Z,99.99
2019-03-16T01:15:28.622Z,99.99
2019-03-16T01:16:28.613Z,99.99
2019-03-16T01:17:28.585Z,99.99
2019-03-16T01:18:28.570Z,99.99
2019-03-16T01:19:28.551Z,99.99
2019-03-16T01:20:28.534Z,99.99
2019-03-16T01:21:28.516Z,99.99
2019-03-16T01:22:28.502Z,99.99
2019-03-16T01:23:28.485Z,99.99
2019-03-16T01:24:28.468Z,99.99
2019-03-16T01:25:28.454Z,99.99
2019-03-16T01:26:28.435Z,99.99
2019-03-16T01:27:28.415Z,99.99
2019-03-16T01:28:28.401Z,99.99
2019-03-16T01:29:28.391Z,99.99
2019-03-16T01:30:28.371Z,99.99
2019-03-16T01:31:28.351Z,99.99
2019-03-16T01:32:40.031Z,99.99
2019-03-16T01:33:28.348Z,99.99
2019-03-16T01:34:28.307Z,99.99
2019-03-16T01:35:28.292Z,99.99
2019-03-16T01:36:28.270Z,99.99
2019-03-16T01:37:28.256Z,99.99
2019-03-16T01:38:28.234Z,99.99
2019-03-16T01:39:28.256Z,99.99
2019-03-16T01:40:28.201Z,99.99
2019-03-16T01:41:28.182Z,99.99
2019-03-16T01:42:28.173Z,99.99
2019-03-16T01:43:28.153Z,99.99
2019-03-16T01:44:28.135Z,99.99
2019-03-16T01:45:28.131Z,99.99
2019-03-16T01:46:28.107Z,99.99
2019-03-16T01:47:28.091Z,99.99
2019-03-16T01:48:28.078Z,99.99
2019-03-16T01:49:28.057Z,99.99
2019-03-16T01:50:28.054Z,99.99
2019-03-16T01:51:28.014Z,99.99
2019-03-16T01:52:28.002Z,99.99
2019-03-16T01:53:27.992Z,99.99
2019-03-16T01:54:27.980Z,99.99
2019-03-16T01:55:27.954Z,99.99
2019-03-16T01:56:27.940Z,99.99
2019-03-16T01:57:27.924Z,99.99
2019-03-16T01:58:27.901Z,99.99
2019-03-16T01:59:27.891Z,99.99
2019-03-16T02:00:27.867Z,99.99
2019-03-16T02:01:27.865Z,99.99
2019-03-16T02:02:27.841Z,99.99
2019-03-16T02:03:27.820Z,99.99
2019-03-16T02:04:27.803Z,99.99
2019-03-16T02:05:27.791Z,99.99
2019-03-16T02:06:27.772Z,99.99
2019-03-16T02:07:27.761Z,99.99
2019-03-16T02:08:27.742Z,99.99
2019-03-16T02:09:27.724Z,99.99
2019-03-16T02:10:27.717Z,99.99
2019-03-16T02:11:27.687Z,99.99
2019-03-16T02:12:27.681Z,99.99
2019-03-16T02:13:27.667Z,99.99
2019-03-16T02:14:27.642Z,99.99
2019-03-16T02:15:27.624Z,99.99
2019-03-16T02:16:27.613Z,99.99
2019-03-16T02:17:27.588Z,99.99
2019-03-16T02:18:27.578Z,99.99
2019-03-16T02:19:27.558Z,99.99
2019-03-16T02:20:27.536Z,99.99
2019-03-16T02:21:27.573Z,99.99
2019-03-16T02:22:27.537Z,99.99
2019-03-16T02:23:27.493Z,99.99
2019-03-16T02:24:27.477Z,99.99
2019-03-16T02:25:27.461Z,99.99
2019-03-16T02:26:27.486Z,99.99
2019-03-16T02:27:27.429Z,99.99
2019-03-16T02:28:27.411Z,99.99
2019-03-16T02:29:27.461Z,99.99
2019-03-16T02:30:27.379Z,99.99
2019-03-16T02:31:27.360Z,99.99
2019-03-16T02:32:27.341Z,99.99
2019-03-16T02:33:27.330Z,99.99
2019-03-16T02:34:27.310Z,99.99
2019-03-16T02:35:27.313Z,99.99
2019-03-16T02:36:27.277Z,99.99
2019-03-16T02:37:27.264Z,99.91
2019-03-16T02:38:27.241Z,99.99
2019-03-16T02:39:27.236Z,99.63
2019-03-16T02:40:27.209Z,99.82
2019-03-16T02:41:27.211Z,99.82
2019-03-16T02:42:27.192Z,99.44
2019-03-16T02:43:27.165Z,99.99
2019-03-16T02:44:27.144Z,99.91
2019-03-16T02:45:27.136Z,99.63
2019-03-16T02:46:27.112Z,99.34
2019-03-16T02:47:27.098Z,99.72
2019-03-16T02:48:27.086Z,99.91
2019-03-16T02:49:27.083Z,99.99
2019-03-16T02:50:27.049Z,99.82
2019-03-16T02:51:27.027Z,99.25
2019-03-16T02:52:27.017Z,99.63
2019-03-16T02:53:27.101Z,99.72
2019-03-16T02:54:26.981Z,99.99
2019-03-16T02:55:26.976Z,99.99
2019-03-16T02:56:26.966Z,99.99
2019-03-16T02:57:26.931Z,99.99
2019-03-16T02:58:26.920Z,99.99
2019-03-16T02:59:26.902Z,99.99
2019-03-16T03:00:26.879Z,99.99
2019-03-16T03:01:26.877Z,99.99
2019-03-16T03:02:26.854Z,99.99
2019-03-16T03:03:29.722Z,99.99
2019-03-16T03:04:26.826Z,99.99
2019-03-16T03:05:26.845Z,99.99
2019-03-16T03:06:26.785Z,99.99
2019-03-16T03:07:26.777Z,99.99
2019-03-16T03:08:26.763Z,99.99
2019-03-16T03:09:26.736Z,99.99
2019-03-16T03:10:26.727Z,99.99
2019-03-16T03:11:26.705Z,99.99
2019-03-16T03:12:26.685Z,99.99
2019-03-16T03:13:26.673Z,99.99
2019-03-16T03:14:26.657Z,99.99
2019-03-16T03:15:26.637Z,99.99
2019-03-16T03:16:26.626Z,99.99
2019-03-16T03:17:26.608Z,99.99
2019-03-16T03:18:26.591Z,99.99
2019-03-16T03:19:26.569Z,99.99
2019-03-16T03:20:26.554Z,99.99
2019-03-16T03:21:26.540Z,99.99
2019-03-16T03:22:26.518Z,99.99
2019-03-16T03:23:26.509Z,99.99
2019-03-16T03:24:26.494Z,99.99
2019-03-16T03:25:26.479Z,99.99
2019-03-16T03:26:26.458Z,99.99
2019-03-16T03:27:26.439Z,99.99
2019-03-16T03:28:26.421Z,99.99
2019-03-16T03:29:26.406Z,99.99
2019-03-16T03:30:26.390Z,99.99
2019-03-16T03:31:26.376Z,99.99
2019-03-16T03:32:26.397Z,99.99
2019-03-16T03:33:26.340Z,99.99
2019-03-16T03:34:26.345Z,99.99
2019-03-16T03:35:29.194Z,99.99
2019-03-16T03:36:26.295Z,99.99
2019-03-16T03:37:26.275Z,99.99
2019-03-16T03:38:26.256Z,99.99
2019-03-16T03:39:26.247Z,99.99
2019-03-16T03:40:26.223Z,99.99
2019-03-16T03:41:26.215Z,99.99
2019-03-16T03:42:26.192Z,99.99
2019-03-16T03:43:26.175Z,99.99
2019-03-16T03:44:26.163Z,99.99
2019-03-16T03:45:26.146Z,99.99
2019-03-16T03:46:26.118Z,99.99
2019-03-16T03:47:26.121Z,99.99
2019-03-16T03:48:26.095Z,99.99
2019-03-16T03:49:26.075Z,99.99
2019-03-16T03:50:26.057Z,99.99
2019-03-16T03:51:26.047Z,99.99
2019-03-16T03:52:26.023Z,99.99
2019-03-16T03:53:26.013Z,99.99
2019-03-16T03:54:26.009Z,99.99
2019-03-16T03:55:25.977Z,99.99
2019-03-16T03:56:25.962Z,99.99
2019-03-16T03:57:25.944Z,99.99
2019-03-16T03:58:25.924Z,99.99
2019-03-16T03:59:25.911Z,99.99
2019-03-16T04:00:25.892Z,99.99
2019-03-16T04:01:26.030Z,99.99
2019-03-16T04:02:25.869Z,99.99
2019-03-16T04:03:25.850Z,99.99
2019-03-16T04:04:25.832Z,99.99
2019-03-16T04:05:25.816Z,99.99
2019-03-16T04:06:25.797Z,99.99
2019-03-16T04:07:25.780Z,99.99
2019-03-16T04:08:25.761Z,99.99
2019-03-16T04:09:25.750Z,99.99
2019-03-16T04:10:25.741Z,99.99
2019-03-16T04:11:25.711Z,99.99
2019-03-16T04:12:25.698Z,99.99
2019-03-16T04:13:25.680Z,99.99
2019-03-16T04:14:25.665Z,99.99
2019-03-16T04:15:25.650Z,99.99
2019-03-16T04:16:25.633Z,99.99
2019-03-16T04:17:25.736Z,99.99
2019-03-16T04:18:25.602Z,99.99
2019-03-16T04:19:25.576Z,99.99
2019-03-16T04:20:25.595Z,99.99
2019-03-16T04:21:25.542Z,99.99
2019-03-16T04:22:25.542Z,99.99
2019-03-16T04:23:25.514Z,99.99
2019-03-16T04:24:25.495Z,99.99
2019-03-16T04:25:25.491Z,99.99
2019-03-16T04:26:25.467Z,99.99
2019-03-16T04:27:25.448Z,99.99
2019-03-16T04:28:25.438Z,99.99
2019-03-16T04:29:25.425Z,99.99
2019-03-16T04:30:25.397Z,99.99
2019-03-16T04:31:25.378Z,99.99
2019-03-16T04:32:25.362Z,99.99
2019-03-16T04:33:25.344Z,99.99
2019-03-16T04:34:29.459Z,99.99
2019-03-16T04:35:25.314Z,99.99
2019-03-16T04:36:25.298Z,99.99
2019-03-16T04:37:25.283Z,99.99
2019-03-16T04:38:25.263Z,99.99
2019-03-16T04:39:25.272Z,99.99
2019-03-16T04:40:25.233Z,99.99
2019-03-16T04:41:25.213Z,99.99
2019-03-16T04:42:25.195Z,99.99
2019-03-16T04:43:25.181Z,99.99
2019-03-16T04:44:25.165Z,99.99
2019-03-16T04:45:25.151Z,99.99
2019-03-16T04:46:25.127Z,99.99
2019-03-16T04:47:25.118Z,99.99
2019-03-16T04:48:25.102Z,99.99
2019-03-16T04:49:25.083Z,99.99
2019-03-16T04:50:25.074Z,99.99
2019-03-16T04:51:25.044Z,99.99
2019-03-16T04:52:25.036Z,99.99
2019-03-16T04:53:25.018Z,99.99
2019-03-16T04:54:25.008Z,99.99
2019-03-16T04:55:24.978Z,99.99
2019-03-16T04:56:24.977Z,99.99
2019-03-16T04:57:24.951Z,99.99
2019-03-16T04:58:24.935Z,99.99
2019-03-16T04:59:24.928Z,99.99
2019-03-16T05:00:24.903Z,99.99
2019-03-16T05:01:24.884Z,99.99
2019-03-16T05:02:24.878Z,99.82
2019-03-16T05:03:24.850Z,99.53
2019-03-16T05:04:24.830Z,99.82
2019-03-16T05:05:24.814Z,99.63
2019-03-16T05:06:24.809Z,99.63
2019-03-16T05:07:24.787Z,99.15
2019-03-16T05:08:24.762Z,99.63
2019-03-16T05:09:24.759Z,99.06
2019-03-16T05:10:24.744Z,99.25
2019-03-16T05:11:24.712Z,98.77
2019-03-16T05:12:24.703Z,98.96
2019-03-16T05:13:24.687Z,98.96
2019-03-16T05:14:24.672Z,99.15
2019-03-16T05:15:24.650Z,99.53
2019-03-16T05:16:24.637Z,99.63
2019-03-16T05:17:24.619Z,99.99
2019-03-16T05:18:24.606Z,99.91
2019-03-16T05:19:24.592Z,99.99
2019-03-16T05:20:24.576Z,99.72
2019-03-16T05:21:24.556Z,99.72
2019-03-16T05:22:24.539Z,99.82
2019-03-16T05:23:24.523Z,99.82
2019-03-16T05:24:24.505Z,99.99
2019-03-16T05:25:24.490Z,99.99
2019-03-16T05:26:24.468Z,99.63
2019-03-16T05:27:24.458Z,99.82
2019-03-16T05:28:24.440Z,99.99
2019-03-16T05:29:24.426Z,99.82
2019-03-16T05:30:24.405Z,99.91
2019-03-16T05:31:24.399Z,99.82
2019-03-16T05:32:24.376Z,99.34
2019-03-16T05:33:24.363Z,99.72
2019-03-16T05:34:24.352Z,99.72
2019-03-16T05:35:24.323Z,99.06
2019-03-16T05:36:24.311Z,99.63
2019-03-16T05:37:24.293Z,99.44
2019-03-16T05:38:24.277Z,99.06
2019-03-16T05:39:24.254Z,99.15
2019-03-16T05:40:24.241Z,98.96
2019-03-16T05:41:24.225Z,98.96
2019-03-16T05:42:24.224Z,98.87
2019-03-16T05:43:24.202Z,99.06
2019-03-16T05:44:24.178Z,98.77
2019-03-16T05:45:24.162Z,99.06
2019-03-16T05:46:24.140Z,98.77
2019-03-16T05:47:24.131Z,99.34
2019-03-16T05:48:24.110Z,99.44
2019-03-16T05:49:24.151Z,99.53
2019-03-16T05:50:24.078Z,99.72
2019-03-16T05:51:24.064Z,99.99
2019-03-16T05:52:24.038Z,99.91
2019-03-16T05:53:24.025Z,99.99
2019-03-16T05:54:24.016Z,99.99
2019-03-16T05:55:23.990Z,99.91
2019-03-16T05:56:23.984Z,99.53
2019-03-16T05:57:23.960Z,99.63
2019-03-16T05:58:23.947Z,99.53
2019-03-16T05:59:23.931Z,99.63
2019-03-16T06:00:23.919Z,99.06
2019-03-16T06:01:23.901Z,98.96
2019-03-16T06:02:23.887Z,98.58
2019-03-16T06:03:23.906Z,98.96
2019-03-16T06:04:23.851Z,98.63
2019-03-16T06:05:23.841Z,98.96
2019-03-16T06:06:27.093Z,98.73
2019-03-16T06:07:23.799Z,99.20
2019-03-16T06:08:23.784Z,98.73
2019-03-16T06:09:23.791Z,99.20
2019-03-16T06:10:23.746Z,98.30
2019-03-16T06:11:23.747Z,98.63
2019-03-16T06:12:23.716Z,98.54
2019-03-16T06:13:23.710Z,98.54
2019-03-16T06:14:23.682Z,98.35
2019-03-16T06:15:23.682Z,98.63
2019-03-16T06:16:23.655Z,98.44
2019-03-16T06:17:23.638Z,98.25
2019-03-16T06:18:23.700Z,97.88
2019-03-16T06:19:23.598Z,98.25
2019-03-16T06:20:23.589Z,98.35
2019-03-16T06:21:23.568Z,98.07
2019-03-16T06:22:23.555Z,98.16
2019-03-16T06:23:23.544Z,98.16
2019-03-16T06:24:23.516Z,97.97
2019-03-16T06:25:23.504Z,98.44
2019-03-16T06:26:23.489Z,98.07
2019-03-16T06:27:23.476Z,97.59
2019-03-16T06:28:23.473Z,98.16
2019-03-16T06:29:23.442Z,97.40
2019-03-16T06:30:23.423Z,97.12
2019-03-16T06:31:23.413Z,97.02
2019-03-16T06:32:23.392Z,96.83
2019-03-16T06:33:23.372Z,97.02
2019-03-16T06:34:23.363Z,97.21
2019-03-16T06:35:25.029Z,97.40
2019-03-16T06:36:23.325Z,97.21
2019-03-16T06:37:23.314Z,97.59
2019-03-16T06:38:23.297Z,97.12
2019-03-16T06:39:23.289Z,97.12
2019-03-16T06:40:23.265Z,97.12
2019-03-16T06:41:23.247Z,96.92
2019-03-16T06:42:23.229Z,97.50
2019-03-16T06:43:23.216Z,97.69
2019-03-16T06:44:23.199Z,97.31
2019-03-16T06:45:23.183Z,97.21
2019-03-16T06:46:23.188Z,96.64
2019-03-16T06:47:23.350Z,96.69
2019-03-16T06:48:23.132Z,96.73
2019-03-16T06:49:23.113Z,96.36
2019-03-16T06:50:23.098Z,96.03
2019-03-16T06:51:23.086Z,96.22
2019-03-16T06:52:23.073Z,96.12
2019-03-16T06:53:23.056Z,95.93
2019-03-16T06:54:23.036Z,95.93
2019-03-16T06:55:23.023Z,95.93
2019-03-16T06:56:23.011Z,96.12
2019-03-16T06:57:22.989Z,95.93
2019-03-16T06:58:22.981Z,95.74
2019-03-16T06:59:22.957Z,95.55
2019-03-16T07:00:22.945Z,95.07
2019-03-16T07:01:22.923Z,95.27
2019-03-16T07:02:22.912Z,95.36
2019-03-16T07:03:22.895Z,94.60
2019-03-16T07:04:22.875Z,94.79
2019-03-16T07:05:25.050Z,94.89
2019-03-16T07:06:22.847Z,94.60
2019-03-16T07:07:22.820Z,94.60
2019-03-16T07:08:22.816Z,94.60
2019-03-16T07:09:22.800Z,94.23
2019-03-16T07:10:22.784Z,94.60
2019-03-16T07:11:22.770Z,94.79
2019-03-16T07:12:22.750Z,93.75
2019-03-16T07:13:22.734Z,93.94
2019-03-16T07:14:22.722Z,93.99
2019-03-16T07:15:22.700Z,93.70
2019-03-16T07:16:22.686Z,93.51
2019-03-16T07:17:22.675Z,93.23
2019-03-16T07:18:22.655Z,93.13
2019-03-16T07:19:22.644Z,92.09
2019-03-16T07:20:22.622Z,92.13
2019-03-16T07:21:22.610Z,91.85
2019-03-16T07:22:22.590Z,91.56
2019-03-16T07:23:22.611Z,90.99
2019-03-16T07:24:22.596Z,90.90
2019-03-16T07:25:22.544Z,90.52
2019-03-16T07:26:22.532Z,90.05
2019-03-16T07:27:26.459Z,89.95
2019-03-16T07:28:22.501Z,89.57
2019-03-16T07:29:22.485Z,89.14
2019-03-16T07:30:22.488Z,89.14
2019-03-16T07:31:22.493Z,88.67
2019-03-16T07:32:22.441Z,88.00
2019-03-16T07:33:22.423Z,88.00
2019-03-16T07:34:22.408Z,87.43
2019-03-16T07:35:22.390Z,87.19
2019-03-16T07:36:22.384Z,86.57
2019-03-16T07:37:22.360Z,86.43
2019-03-16T07:38:22.346Z,85.86
2019-03-16T07:39:22.333Z,86.52
2019-03-16T07:40:22.315Z,86.05
2019-03-16T07:41:22.301Z,85.66
2019-03-16T07:42:22.294Z,85.10
2019-03-16T07:43:22.275Z,85.28
2019-03-16T07:44:22.269Z,84.91
2019-03-16T07:45:22.246Z,84.47
2019-03-16T07:46:22.229Z,83.90
2019-03-16T07:47:22.221Z,83.52
2019-03-16T07:48:22.194Z,83.62
2019-03-16T07:49:22.185Z,83.33
2019-03-16T07:50:22.173Z,83.52
2019-03-16T07:51:22.163Z,82.86
2019-03-16T07:52:22.134Z,82.42
2019-03-16T07:53:22.123Z,82.04
2019-03-16T07:54:22.122Z,81.76
2019-03-16T07:55:22.109Z,81.47
2019-03-16T07:56:22.085Z,81.09
2019-03-16T07:57:22.068Z,80.90
2019-03-16T07:58:22.056Z,79.94
2019-03-16T07:59:22.122Z,80.13
2019-03-16T08:00:22.026Z,79.94
2019-03-16T08:01:22.020Z,79.32
2019-03-16T08:02:21.995Z,79.51
2019-03-16T08:03:21.976Z,79.75
2019-03-16T08:04:21.970Z,78.85
2019-03-16T08:05:21.960Z,78.85
2019-03-16T08:06:21.940Z,79.03
2019-03-16T08:07:21.940Z,78.27
2019-03-16T08:08:21.918Z,78.65
2019-03-16T08:09:21.992Z,78.65
2019-03-16T08:10:21.882Z,78.17
2019-03-16T08:11:21.878Z,77.45
2019-03-16T08:12:21.869Z,77.64
2019-03-16T08:13:21.839Z,77.36
2019-03-16T08:14:21.830Z,76.59
2019-03-16T08:15:21.816Z,76.69
2019-03-16T08:16:21.804Z,76.03
2019-03-16T08:17:21.784Z,76.03
2019-03-16T08:18:21.775Z,75.74
2019-03-16T08:19:21.760Z,75.36
2019-03-16T08:20:21.745Z,75.55
2019-03-16T08:21:21.732Z,75.30
2019-03-16T08:22:21.717Z,75.59
2019-03-16T08:23:21.706Z,75.40
2019-03-16T08:24:21.693Z,75.11
2019-03-16T08:25:21.684Z,74.35
2019-03-16T08:26:21.668Z,74.25
2019-03-16T08:27:21.656Z,74.35
2019-03-16T08:28:21.634Z,74.57
2019-03-16T08:29:21.627Z,73.72
2019-03-16T08:30:23.703Z,73.05
2019-03-16T08:31:21.602Z,72.76
2019-03-16T08:32:21.585Z,72.09
2019-03-16T08:33:21.569Z,72.19
2019-03-16T08:34:21.559Z,71.81
2019-03-16T08:35:21.551Z,71.23
2019-03-16T08:36:21.538Z,70.95
2019-03-16T08:37:21.523Z,70.95
2019-03-16T08:38:21.507Z,70.70
2019-03-16T08:39:21.494Z,70.89
2019-03-16T08:40:21.478Z,71.08
2019-03-16T08:41:21.471Z,70.03
2019-03-16T08:42:21.457Z,69.93
2019-03-16T08:43:21.443Z,69.84
2019-03-16T08:44:21.432Z,69.74
2019-03-16T08:45:21.418Z,69.97
2019-03-16T08:46:21.412Z,69.08
2019-03-16T08:47:21.388Z,69.31
2019-03-16T08:48:23.256Z,69.21
2019-03-16T08:49:21.366Z,68.92
2019-03-16T08:50:21.356Z,68.35
2019-03-16T08:51:21.342Z,68.16
2019-03-16T08:52:21.330Z,68.16
2019-03-16T08:53:22.862Z,67.97
2019-03-16T08:54:21.308Z,68.06
2019-03-16T08:55:21.292Z,67.91
2019-03-16T08:56:21.282Z,67.71
2019-03-16T08:57:21.268Z,67.05
2019-03-16T08:58:21.251Z,66.85
2019-03-16T08:59:24.256Z,65.80
2019-03-16T09:00:21.235Z,65.42
2019-03-16T09:01:21.218Z,65.04
2019-03-16T09:02:21.214Z,65.42
2019-03-16T09:03:21.203Z,65.33
2019-03-16T09:04:21.184Z,65.61
2019-03-16T09:05:21.173Z,66.38
2019-03-16T09:06:21.158Z,65.71
2019-03-16T09:07:21.153Z,65.71
2019-03-16T09:08:21.140Z,65.23
2019-03-16T09:09:21.124Z,65.48
2019-03-16T09:10:21.123Z,66.06
2019-03-16T09:11:21.098Z,66.63
2019-03-16T09:12:21.087Z,66.82
2019-03-16T09:13:21.078Z,66.25
2019-03-16T09:14:21.064Z,66.53
2019-03-16T09:15:21.055Z,66.63
2019-03-16T09:16:21.046Z,66.82
2019-03-16T09:17:21.029Z,67.87
2019-03-16T09:18:21.018Z,67.87
2019-03-16T09:19:21.002Z,67.58
2019-03-16T09:20:20.991Z,67.87
2019-03-16T09:21:20.992Z,67.87
2019-03-16T09:22:20.977Z,68.06
2019-03-16T09:23:20.955Z,67.97
2019-03-16T09:24:20.946Z,67.52
2019-03-16T09:25:20.927Z,66.95
2019-03-16T09:26:20.926Z,66.95
2019-03-16T09:27:30.709Z,66.79
2019-03-16T09:28:20.899Z,65.64
2019-03-16T09:29:20.899Z,64.78
2019-03-16T09:30:20.933Z,64.31
2019-03-16T09:31:20.862Z,64.43
2019-03-16T09:32:20.851Z,64.05
2019-03-16T09:33:20.948Z,63.67
2019-03-16T09:34:20.832Z,63.39
2019-03-16T09:35:20.818Z,63.48
2019-03-16T09:36:20.805Z,63.13
2019-03-16T09:37:20.796Z,62.74
2019-03-16T09:38:20.785Z,62.08
2019-03-16T09:39:20.772Z,61.31
2019-03-16T09:40:20.759Z,61.05
2019-03-16T09:41:20.749Z,60.67
2019-03-16T09:42:20.740Z,61.05
2019-03-16T09:43:20.728Z,60.19
2019-03-16T09:44:20.730Z,60.22
2019-03-16T09:45:20.706Z,58.76
2019-03-16T09:46:20.697Z,58.31
2019-03-16T09:47:20.684Z,57.83
2019-03-16T09:48:20.680Z,57.45
2019-03-16T09:49:20.671Z,57.16
2019-03-16T09:50:20.649Z,56.59
2019-03-16T09:51:20.642Z,56.59
2019-03-16T09:52:20.630Z,56.59
2019-03-16T09:53:20.620Z,56.61
2019-03-16T09:54:20.606Z,55.75
2019-03-16T09:55:20.596Z,55.65
2019-03-16T09:56:20.590Z,55.46
2019-03-16T09:57:20.576Z,54.82
2019-03-16T09:58:30.700Z,55.01
2019-03-16T09:59:20.553Z,55.01
2019-03-16T10:00:20.544Z,54.91
2019-03-16T10:01:20.529Z,54.53
2019-03-16T10:02:20.519Z,54.66
2019-03-16T10:03:20.514Z,54.75
2019-03-16T10:04:20.505Z,53.89
2019-03-16T10:05:20.494Z,53.41
2019-03-16T10:06:20.482Z,53.00
2019-03-16T10:07:20.471Z,53.00
2019-03-16T10:08:20.466Z,52.81
2019-03-16T10:09:20.450Z,52.91
2019-03-16T10:10:20.443Z,53.77
2019-03-16T10:11:20.435Z,53.19
2019-03-16T10:12:20.438Z,53.96
2019-03-16T10:13:20.415Z,53.83
2019-03-16T10:14:20.404Z,53.93
2019-03-16T10:15:20.407Z,53.62
2019-03-16T10:16:20.378Z,54.89
2019-03-16T10:17:20.369Z,54.89
2019-03-16T10:18:20.369Z,55.08
2019-03-16T10:19:20.355Z,55.56
2019-03-16T10:20:20.341Z,56.35
2019-03-16T10:21:20.337Z,56.07
2019-03-16T10:22:20.325Z,55.11
2019-03-16T10:23:20.314Z,53.99
2019-03-16T10:24:20.304Z,53.70
2019-03-16T10:25:20.306Z,52.64
2019-03-16T10:26:20.286Z,52.76
2019-03-16T10:27:20.271Z,53.05
2019-03-16T10:28:20.268Z,52.76
2019-03-16T10:29:20.256Z,52.98
2019-03-16T10:30:20.248Z,52.31
2019-03-16T10:31:20.239Z,52.12
2019-03-16T10:32:20.239Z,51.73
2019-03-16T10:33:20.218Z,50.96
2019-03-16T10:34:20.225Z,50.37
2019-03-16T10:35:20.205Z,50.46
2019-03-16T10:36:20.195Z,50.84
2019-03-16T10:37:20.196Z,51.14
2019-03-16T10:38:20.180Z,51.61
2019-03-16T10:39:20.167Z,51.51
2019-03-16T10:40:20.164Z,51.14
2019-03-16T10:41:20.146Z,51.35
2019-03-16T10:42:20.138Z,50.27
2019-03-16T10:43:20.129Z,50.65
2019-03-16T10:44:20.124Z,50.75
2019-03-16T10:45:20.104Z,50.37
2019-03-16T10:46:20.105Z,51.10
2019-03-16T10:47:20.094Z,51.49
2019-03-16T10:48:20.088Z,51.49
2019-03-16T10:49:20.083Z,52.07
2019-03-16T10:50:20.068Z,51.78
2019-03-16T10:51:20.058Z,52.07
2019-03-16T10:52:20.053Z,52.07
2019-03-16T10:53:20.048Z,52.07
2019-03-16T10:54:20.039Z,51.81
2019-03-16T10:55:20.024Z,52.48
2019-03-16T10:56:20.014Z,52.79
2019-03-16T10:57:20.013Z,51.83
2019-03-16T10:58:20.001Z,51.28
2019-03-16T10:59:19.990Z,51.37
2019-03-16T11:00:19.982Z,50.80
2019-03-16T11:01:19.978Z,50.13
2019-03-16T11:02:19.966Z,49.93
2019-03-16T11:03:19.957Z,49.93
2019-03-16T11:04:19.949Z,50.61
2019-03-16T11:05:19.945Z,49.74
2019-03-16T11:06:19.930Z,50.13
2019-03-16T11:07:19.921Z,50.15
2019-03-16T11:08:19.915Z,49.87
2019-03-16T11:09:19.901Z,48.81
2019-03-16T11:10:19.898Z,48.64
2019-03-16T11:11:19.891Z,48.45
2019-03-16T11:12:19.882Z,47.31
2019-03-16T11:13:19.875Z,47.24
2019-03-16T11:14:19.899Z,46.28
2019-03-16T11:15:19.857Z,45.61
2019-03-16T11:16:19.846Z,44.53
2019-03-16T11:17:19.847Z,45.87
2019-03-16T11:18:19.833Z,47.00
2019-03-16T11:19:19.829Z,46.81
2019-03-16T11:20:19.818Z,46.69
2019-03-16T11:21:19.812Z,47.17
2019-03-16T11:22:19.805Z,48.23
2019-03-16T11:23:19.793Z,48.23
2019-03-16T11:24:19.798Z,48.13
2019-03-16T11:25:19.780Z,48.04
2019-03-16T11:26:19.770Z,48.25
2019-03-16T11:27:19.766Z,47.49
2019-03-16T11:28:19.756Z,47.51
2019-03-16T11:29:19.751Z,47.41
2019-03-16T11:30:19.740Z,46.09
2019-03-16T11:31:19.737Z,44.84
2019-03-16T11:32:19.721Z,44.96
2019-03-16T11:33:19.737Z,44.02
2019-03-16T11:34:19.715Z,43.54
2019-03-16T11:35:19.706Z,43.27
2019-03-16T11:36:19.695Z,42.69
2019-03-16T11:37:19.694Z,42.52
2019-03-16T11:38:19.684Z,41.38
2019-03-16T11:39:19.677Z,40.42
2019-03-16T11:40:19.658Z,40.32
2019-03-16T11:41:19.657Z,39.28
2019-03-16T11:42:19.651Z,39.86
2019-03-16T11:43:19.644Z,39.09
2019-03-16T11:44:19.636Z,38.99
2019-03-16T11:45:19.633Z,39.57
2019-03-16T11:46:19.625Z,39.11
2019-03-16T11:47:19.616Z,38.43
2019-03-16T11:48:19.608Z,37.93
2019-03-16T11:49:19.604Z,38.53
2019-03-16T11:50:19.593Z,38.81
2019-03-16T11:51:19.589Z,38.04
2019-03-16T11:52:19.583Z,37.95
2019-03-16T11:53:19.575Z,37.95
2019-03-16T11:54:19.576Z,38.51
2019-03-16T11:55:19.561Z,38.79
2019-03-16T11:56:19.561Z,38.51
2019-03-16T11:57:19.552Z,37.83
2019-03-16T11:58:19.549Z,37.93
2019-03-16T11:59:21.790Z,38.21
2019-03-16T12:00:19.528Z,38.41
2019-03-16T12:01:19.525Z,38.02
2019-03-16T12:02:19.526Z,38.23
2019-03-16T12:03:19.512Z,37.75
2019-03-16T12:04:19.507Z,37.17
2019-03-16T12:05:19.505Z,37.00
2019-03-16T12:06:19.494Z,36.80
2019-03-16T12:07:19.493Z,36.22
2019-03-16T12:08:19.482Z,35.55
2019-03-16T12:09:19.475Z,35.64
2019-03-16T12:10:19.491Z,36.01
2019-03-16T12:11:19.470Z,36.88
2019-03-16T12:12:19.459Z,36.48
2019-03-16T12:13:19.958Z,36.48
2019-03-16T12:14:19.480Z,36.96
2019-03-16T12:15:19.442Z,37.25
2019-03-16T12:16:19.436Z,37.62
2019-03-16T12:17:19.430Z,38.12
2019-03-16T12:18:19.423Z,38.21
2019-03-16T12:19:19.420Z,38.60
2019-03-16T12:20:19.410Z,38.41
2019-03-16T12:21:19.409Z,38.60
2019-03-16T12:22:19.401Z,38.58
2019-03-16T12:23:19.398Z,38.97
2019-03-16T12:24:19.388Z,39.34
2019-03-16T12:25:19.385Z,39.62
2019-03-16T12:26:20.292Z,40.28
2019-03-16T12:27:19.368Z,39.70
2019-03-16T12:28:19.362Z,40.28
2019-03-16T12:29:19.358Z,40.66
2019-03-16T12:30:19.354Z,40.57
2019-03-16T12:31:19.345Z,40.28
2019-03-16T12:32:19.339Z,40.57
2019-03-16T12:33:19.333Z,40.09
2019-03-16T12:34:19.330Z,40.20
2019-03-16T12:35:19.323Z,39.62
2019-03-16T12:36:19.315Z,39.72
2019-03-16T12:37:19.303Z,38.97
2019-03-16T12:38:19.303Z,37.81
2019-03-16T12:39:19.304Z,38.01
2019-03-16T12:40:19.284Z,38.28
2019-03-16T12:41:19.280Z,38.81
2019-03-16T12:42:19.286Z,39.59
2019-03-16T12:43:19.269Z,40.81
2019-03-16T12:44:19.266Z,40.74
2019-03-16T12:45:20.827Z,41.22
2019-03-16T12:46:19.248Z,41.03
2019-03-16T12:47:19.240Z,40.26
2019-03-16T12:48:19.230Z,40.34
2019-03-16T12:49:19.226Z,40.43
2019-03-16T12:50:19.225Z,41.20
2019-03-16T12:51:19.216Z,40.70
2019-03-16T12:52:19.211Z,41.66